sensor_id;sensor_type;location;lat;lon;timestamp;P1;durP1;ratioP1;P2;durP2;ratioP2
72388;SDS011;60566;48.062;9.930;2024-02-26T00:00:30;2.55;;;1.33;;
72388;SDS011;60566;48.062;9.930;2024-02-26T00:02:55;1.77;;;0.98;;
72388;SDS011;60566;48.062;9.930;2024-02-26T00:05:21;1.58;;;0.80;;
72388;SDS011;60566;48.062;9.930;2024-02-26T00:07:46;2.22;;;0.90;;
72388;SDS011;60566;48.062;9.930;2024-02-26T00:10:13;2.15;;;0.90;;
72388;SDS011;60566;48.062;9.930;2024-02-26T00:12:38;1.85;;;1.15;;
72388;SDS011;60566;48.062;9.930;2024-02-26T00:15:04;1.80;;;1.10;;
72388;SDS011;60566;48.062;9.930;2024-02-26T00:17:30;2.28;;;1.00;;
72388;SDS011;60566;48.062;9.930;2024-02-26T00:19:56;2.92;;;1.08;;
72388;SDS011;60566;48.062;9.930;2024-02-26T00:22:22;2.33;;;1.10;;
72388;SDS011;60566;48.062;9.930;2024-02-26T00:24:47;1.90;;;0.90;;
72388;SDS011;60566;48.062;9.930;2024-02-26T00:27:14;1.85;;;0.90;;
72388;SDS011;60566;48.062;9.930;2024-02-26T00:29:39;2.47;;;0.82;;
72388;SDS011;60566;48.062;9.930;2024-02-26T00:32:05;1.33;;;0.70;;
72388;SDS011;60566;48.062;9.930;2024-02-26T00:34:30;1.45;;;0.82;;
72388;SDS011;60566;48.062;9.930;2024-02-26T00:36:56;1.73;;;0.98;;
72388;SDS011;60566;48.062;9.930;2024-02-26T00:39:21;1.98;;;0.88;;
72388;SDS011;60566;48.062;9.930;2024-02-26T00:41:46;2.40;;;1.08;;
72388;SDS011;60566;48.062;9.930;2024-02-26T00:44:13;1.73;;;1.02;;
72388;SDS011;60566;48.062;9.930;2024-02-26T00:46:39;2.42;;;1.30;;
72388;SDS011;60566;48.062;9.930;2024-02-26T00:49:04;1.67;;;0.95;;
72388;SDS011;60566;48.062;9.930;2024-02-26T00:51:29;2.05;;;0.98;;
72388;SDS011;60566;48.062;9.930;2024-02-26T00:53:55;1.67;;;1.00;;
72388;SDS011;60566;48.062;9.930;2024-02-26T00:56:21;2.35;;;1.13;;
72388;SDS011;60566;48.062;9.930;2024-02-26T00:58:46;1.98;;;1.02;;
72388;SDS011;60566;48.062;9.930;2024-02-26T01:01:13;2.03;;;1.15;;
72388;SDS011;60566;48.062;9.930;2024-02-26T01:03:38;2.58;;;1.35;;
72388;SDS011;60566;48.062;9.930;2024-02-26T01:06:04;1.85;;;1.05;;
72388;SDS011;60566;48.062;9.930;2024-02-26T01:08:29;2.88;;;1.40;;
72388;SDS011;60566;48.062;9.930;2024-02-26T01:10:55;3.08;;;1.10;;
72388;SDS011;60566;48.062;9.930;2024-02-26T01:13:20;3.40;;;1.42;;
72388;SDS011;60566;48.062;9.930;2024-02-26T01:15:45;2.95;;;1.25;;
72388;SDS011;60566;48.062;9.930;2024-02-26T01:18:13;3.22;;;1.52;;
72388;SDS011;60566;48.062;9.930;2024-02-26T01:20:38;2.85;;;1.52;;
72388;SDS011;60566;48.062;9.930;2024-02-26T01:23:03;3.55;;;1.48;;
72388;SDS011;60566;48.062;9.930;2024-02-26T01:25:29;4.28;;;1.60;;
72388;SDS011;60566;48.062;9.930;2024-02-26T01:27:54;4.20;;;1.80;;
72388;SDS011;60566;48.062;9.930;2024-02-26T01:30:20;4.05;;;1.90;;
72388;SDS011;60566;48.062;9.930;2024-02-26T01:32:45;5.15;;;2.35;;
72388;SDS011;60566;48.062;9.930;2024-02-26T01:35:12;4.82;;;1.98;;
72388;SDS011;60566;48.062;9.930;2024-02-26T01:37:37;3.55;;;1.67;;
72388;SDS011;60566;48.062;9.930;2024-02-26T01:40:03;5.28;;;2.20;;
72388;SDS011;60566;48.062;9.930;2024-02-26T01:42:30;3.90;;;1.88;;
72388;SDS011;60566;48.062;9.930;2024-02-26T01:44:55;4.60;;;2.20;;
72388;SDS011;60566;48.062;9.930;2024-02-26T01:47:21;4.38;;;2.38;;
72388;SDS011;60566;48.062;9.930;2024-02-26T01:49:46;5.55;;;2.30;;
72388;SDS011;60566;48.062;9.930;2024-02-26T01:52:13;5.47;;;2.28;;
72388;SDS011;60566;48.062;9.930;2024-02-26T01:54:39;5.53;;;2.58;;
72388;SDS011;60566;48.062;9.930;2024-02-26T01:57:05;3.78;;;1.92;;
72388;SDS011;60566;48.062;9.930;2024-02-26T01:59:32;3.60;;;2.00;;
72388;SDS011;60566;48.062;9.930;2024-02-26T02:01:59;3.22;;;1.60;;
72388;SDS011;60566;48.062;9.930;2024-02-26T02:04:26;4.78;;;2.20;;
72388;SDS011;60566;48.062;9.930;2024-02-26T02:06:51;5.53;;;1.90;;
72388;SDS011;60566;48.062;9.930;2024-02-26T02:09:18;5.03;;;2.25;;
72388;SDS011;60566;48.062;9.930;2024-02-26T02:11:44;5.28;;;1.90;;
72388;SDS011;60566;48.062;9.930;2024-02-26T02:14:09;4.00;;;1.80;;
72388;SDS011;60566;48.062;9.930;2024-02-26T02:16:34;4.13;;;2.38;;
72388;SDS011;60566;48.062;9.930;2024-02-26T02:19:00;4.85;;;2.25;;
72388;SDS011;60566;48.062;9.930;2024-02-26T02:21:27;4.05;;;1.80;;
72388;SDS011;60566;48.062;9.930;2024-02-26T02:23:52;4.15;;;1.95;;
72388;SDS011;60566;48.062;9.930;2024-02-26T02:26:17;5.43;;;2.15;;
72388;SDS011;60566;48.062;9.930;2024-02-26T02:28:43;5.57;;;1.92;;
72388;SDS011;60566;48.062;9.930;2024-02-26T02:31:09;4.45;;;2.40;;
72388;SDS011;60566;48.062;9.930;2024-02-26T02:33:35;4.30;;;2.17;;
72388;SDS011;60566;48.062;9.930;2024-02-26T02:36:00;4.80;;;2.00;;
72388;SDS011;60566;48.062;9.930;2024-02-26T02:38:27;5.60;;;2.70;;
72388;SDS011;60566;48.062;9.930;2024-02-26T02:40:53;4.22;;;2.33;;
72388;SDS011;60566;48.062;9.930;2024-02-26T02:43:18;4.57;;;2.33;;
72388;SDS011;60566;48.062;9.930;2024-02-26T02:45:43;4.72;;;2.55;;
72388;SDS011;60566;48.062;9.930;2024-02-26T02:48:09;4.82;;;2.42;;
72388;SDS011;60566;48.062;9.930;2024-02-26T02:50:35;4.88;;;2.15;;
72388;SDS011;60566;48.062;9.930;2024-02-26T02:53:01;4.40;;;2.30;;
72388;SDS011;60566;48.062;9.930;2024-02-26T02:55:28;5.28;;;2.42;;
72388;SDS011;60566;48.062;9.930;2024-02-26T02:57:53;4.25;;;2.10;;
72388;SDS011;60566;48.062;9.930;2024-02-26T03:00:19;3.20;;;1.75;;
72388;SDS011;60566;48.062;9.930;2024-02-26T03:02:44;4.43;;;2.55;;
72388;SDS011;60566;48.062;9.930;2024-02-26T03:05:09;3.78;;;2.08;;
72388;SDS011;60566;48.062;9.930;2024-02-26T03:07:35;4.28;;;2.30;;
72388;SDS011;60566;48.062;9.930;2024-02-26T03:10:00;3.53;;;2.03;;
72388;SDS011;60566;48.062;9.930;2024-02-26T03:12:27;3.80;;;1.88;;
72388;SDS011;60566;48.062;9.930;2024-02-26T03:14:53;3.88;;;1.90;;
72388;SDS011;60566;48.062;9.930;2024-02-26T03:17:18;4.60;;;1.95;;
72388;SDS011;60566;48.062;9.930;2024-02-26T03:19:44;3.83;;;1.80;;
72388;SDS011;60566;48.062;9.930;2024-02-26T03:22:09;4.03;;;2.20;;
72388;SDS011;60566;48.062;9.930;2024-02-26T03:24:34;4.50;;;1.90;;
72388;SDS011;60566;48.062;9.930;2024-02-26T03:27:00;4.55;;;2.20;;
72388;SDS011;60566;48.062;9.930;2024-02-26T03:29:26;4.68;;;2.03;;
72388;SDS011;60566;48.062;9.930;2024-02-26T03:31:52;4.10;;;2.00;;
72388;SDS011;60566;48.062;9.930;2024-02-26T03:34:17;5.07;;;2.22;;
72388;SDS011;60566;48.062;9.930;2024-02-26T03:36:42;3.63;;;2.00;;
72388;SDS011;60566;48.062;9.930;2024-02-26T03:39:08;4.70;;;1.90;;
72388;SDS011;60566;48.062;9.930;2024-02-26T03:41:33;3.90;;;1.90;;
72388;SDS011;60566;48.062;9.930;2024-02-26T03:43:59;4.25;;;2.13;;
72388;SDS011;60566;48.062;9.930;2024-02-26T03:46:26;4.82;;;2.17;;
72388;SDS011;60566;48.062;9.930;2024-02-26T03:48:51;4.45;;;2.53;;
72388;SDS011;60566;48.062;9.930;2024-02-26T03:51:16;6.43;;;1.80;;
72388;SDS011;60566;48.062;9.930;2024-02-26T03:53:42;4.43;;;2.10;;
72388;SDS011;60566;48.062;9.930;2024-02-26T03:56:07;4.15;;;2.22;;
72388;SDS011;60566;48.062;9.930;2024-02-26T03:58:33;4.65;;;2.00;;
72388;SDS011;60566;48.062;9.930;2024-02-26T04:00:58;4.45;;;2.63;;
72388;SDS011;60566;48.062;9.930;2024-02-26T04:03:25;3.83;;;1.70;;
72388;SDS011;60566;48.062;9.930;2024-02-26T04:05:50;4.28;;;2.00;;
72388;SDS011;60566;48.062;9.930;2024-02-26T04:08:16;3.80;;;1.75;;
72388;SDS011;60566;48.062;9.930;2024-02-26T04:10:41;5.55;;;2.40;;
72388;SDS011;60566;48.062;9.930;2024-02-26T04:13:07;3.72;;;2.17;;
72388;SDS011;60566;48.062;9.930;2024-02-26T04:15:32;4.78;;;2.40;;
72388;SDS011;60566;48.062;9.930;2024-02-26T04:17:58;4.97;;;2.20;;
72388;SDS011;60566;48.062;9.930;2024-02-26T04:20:24;4.00;;;2.10;;
72388;SDS011;60566;48.062;9.930;2024-02-26T04:22:50;4.60;;;2.33;;
72388;SDS011;60566;48.062;9.930;2024-02-26T04:25:15;6.72;;;2.67;;
72388;SDS011;60566;48.062;9.930;2024-02-26T04:27:41;4.90;;;2.42;;
72388;SDS011;60566;48.062;9.930;2024-02-26T04:30:07;4.05;;;2.10;;
72388;SDS011;60566;48.062;9.930;2024-02-26T04:32:33;5.85;;;2.45;;
72388;SDS011;60566;48.062;9.930;2024-02-26T04:34:58;4.50;;;2.60;;
72388;SDS011;60566;48.062;9.930;2024-02-26T04:37:25;5.90;;;3.20;;
72388;SDS011;60566;48.062;9.930;2024-02-26T04:39:50;5.40;;;2.65;;
72388;SDS011;60566;48.062;9.930;2024-02-26T04:42:16;4.93;;;2.67;;
72388;SDS011;60566;48.062;9.930;2024-02-26T04:44:41;5.35;;;2.45;;
72388;SDS011;60566;48.062;9.930;2024-02-26T04:47:06;5.60;;;2.22;;
72388;SDS011;60566;48.062;9.930;2024-02-26T04:49:32;5.10;;;2.30;;
72388;SDS011;60566;48.062;9.930;2024-02-26T04:51:57;5.55;;;2.60;;
72388;SDS011;60566;48.062;9.930;2024-02-26T04:54:24;4.80;;;2.38;;
72388;SDS011;60566;48.062;9.930;2024-02-26T04:56:49;4.40;;;2.28;;
72388;SDS011;60566;48.062;9.930;2024-02-26T04:59:15;4.00;;;2.20;;
72388;SDS011;60566;48.062;9.930;2024-02-26T05:01:40;4.40;;;2.15;;
72388;SDS011;60566;48.062;9.930;2024-02-26T05:04:05;5.20;;;3.47;;
72388;SDS011;60566;48.062;9.930;2024-02-26T05:06:31;5.28;;;3.10;;
72388;SDS011;60566;48.062;9.930;2024-02-26T05:08:56;4.63;;;2.20;;
72388;SDS011;60566;48.062;9.930;2024-02-26T05:11:23;5.20;;;2.70;;
72388;SDS011;60566;48.062;9.930;2024-02-26T05:13:48;5.03;;;2.78;;
72388;SDS011;60566;48.062;9.930;2024-02-26T05:16:14;4.50;;;2.60;;
72388;SDS011;60566;48.062;9.930;2024-02-26T05:18:39;6.50;;;2.80;;
72388;SDS011;60566;48.062;9.930;2024-02-26T05:21:05;6.03;;;3.30;;
72388;SDS011;60566;48.062;9.930;2024-02-26T05:23:30;5.07;;;2.90;;
72388;SDS011;60566;48.062;9.930;2024-02-26T05:25:55;5.40;;;2.90;;
72388;SDS011;60566;48.062;9.930;2024-02-26T05:28:22;4.93;;;2.47;;
72388;SDS011;60566;48.062;9.930;2024-02-26T05:30:47;4.80;;;2.42;;
72388;SDS011;60566;48.062;9.930;2024-02-26T05:33:13;9.30;;;3.17;;
72388;SDS011;60566;48.062;9.930;2024-02-26T05:35:38;5.57;;;3.50;;
72388;SDS011;60566;48.062;9.930;2024-02-26T05:38:04;6.55;;;3.58;;
72388;SDS011;60566;48.062;9.930;2024-02-26T05:40:29;4.70;;;2.47;;
72388;SDS011;60566;48.062;9.930;2024-02-26T05:42:55;6.75;;;2.40;;
72388;SDS011;60566;48.062;9.930;2024-02-26T05:45:22;5.53;;;2.90;;
72388;SDS011;60566;48.062;9.930;2024-02-26T05:47:47;4.57;;;2.50;;
72388;SDS011;60566;48.062;9.930;2024-02-26T05:50:12;5.32;;;2.67;;
72388;SDS011;60566;48.062;9.930;2024-02-26T05:52:38;5.28;;;2.60;;
72388;SDS011;60566;48.062;9.930;2024-02-26T05:55:04;5.50;;;2.72;;
72388;SDS011;60566;48.062;9.930;2024-02-26T05:57:30;4.40;;;2.33;;
72388;SDS011;60566;48.062;9.930;2024-02-26T05:59:55;5.82;;;2.65;;
72388;SDS011;60566;48.062;9.930;2024-02-26T06:02:22;4.80;;;2.08;;
72388;SDS011;60566;48.062;9.930;2024-02-26T06:04:48;5.47;;;2.53;;
72388;SDS011;60566;48.062;9.930;2024-02-26T06:07:13;4.88;;;2.55;;
72388;SDS011;60566;48.062;9.930;2024-02-26T06:09:38;4.93;;;2.38;;
72388;SDS011;60566;48.062;9.930;2024-02-26T06:12:04;4.88;;;2.47;;
72388;SDS011;60566;48.062;9.930;2024-02-26T06:14:30;4.32;;;2.47;;
72388;SDS011;60566;48.062;9.930;2024-02-26T06:16:55;5.53;;;3.15;;
72388;SDS011;60566;48.062;9.930;2024-02-26T06:19:22;3.80;;;2.25;;
72388;SDS011;60566;48.062;9.930;2024-02-26T06:21:47;4.90;;;2.45;;
72388;SDS011;60566;48.062;9.930;2024-02-26T06:24:12;6.93;;;3.72;;
72388;SDS011;60566;48.062;9.930;2024-02-26T06:26:38;9.50;;;4.38;;
72388;SDS011;60566;48.062;9.930;2024-02-26T06:29:03;4.32;;;2.45;;
72388;SDS011;60566;48.062;9.930;2024-02-26T06:31:28;4.72;;;2.33;;
72388;SDS011;60566;48.062;9.930;2024-02-26T06:33:54;5.05;;;2.35;;
72388;SDS011;60566;48.062;9.930;2024-02-26T06:36:21;5.75;;;2.28;;
72388;SDS011;60566;48.062;9.930;2024-02-26T06:38:47;4.80;;;2.28;;
72388;SDS011;60566;48.062;9.930;2024-02-26T06:41:12;4.53;;;2.53;;
72388;SDS011;60566;48.062;9.930;2024-02-26T06:43:38;5.45;;;2.55;;
72388;SDS011;60566;48.062;9.930;2024-02-26T06:46:03;5.45;;;2.60;;
72388;SDS011;60566;48.062;9.930;2024-02-26T06:48:28;8.23;;;4.97;;
72388;SDS011;60566;48.062;9.930;2024-02-26T06:50:54;5.15;;;3.17;;
72388;SDS011;60566;48.062;9.930;2024-02-26T06:53:21;5.00;;;2.33;;
72388;SDS011;60566;48.062;9.930;2024-02-26T06:55:46;4.97;;;2.88;;
72388;SDS011;60566;48.062;9.930;2024-02-26T06:58:11;4.53;;;2.53;;
72388;SDS011;60566;48.062;9.930;2024-02-26T07:00:37;6.93;;;3.00;;
72388;SDS011;60566;48.062;9.930;2024-02-26T07:03:02;4.90;;;2.55;;
72388;SDS011;60566;48.062;9.930;2024-02-26T07:05:28;7.38;;;2.80;;
72388;SDS011;60566;48.062;9.930;2024-02-26T07:07:53;7.40;;;2.45;;
72388;SDS011;60566;48.062;9.930;2024-02-26T07:10:20;4.15;;;2.03;;
72388;SDS011;60566;48.062;9.930;2024-02-26T07:12:46;3.95;;;2.20;;
72388;SDS011;60566;48.062;9.930;2024-02-26T07:15:11;4.00;;;2.20;;
72388;SDS011;60566;48.062;9.930;2024-02-26T07:17:36;3.35;;;1.90;;
72388;SDS011;60566;48.062;9.930;2024-02-26T07:20:02;3.58;;;1.88;;
72388;SDS011;60566;48.062;9.930;2024-02-26T07:22:28;4.60;;;2.40;;
72388;SDS011;60566;48.062;9.930;2024-02-26T07:24:53;4.22;;;2.22;;
72388;SDS011;60566;48.062;9.930;2024-02-26T07:27:20;3.80;;;1.95;;
72388;SDS011;60566;48.062;9.930;2024-02-26T07:29:45;5.00;;;2.13;;
72388;SDS011;60566;48.062;9.930;2024-02-26T07:32:11;4.63;;;2.50;;
72388;SDS011;60566;48.062;9.930;2024-02-26T07:34:36;3.67;;;2.25;;
72388;SDS011;60566;48.062;9.930;2024-02-26T07:37:01;5.03;;;2.88;;
72388;SDS011;60566;48.062;9.930;2024-02-26T07:39:27;16.67;;;7.05;;
72388;SDS011;60566;48.062;9.930;2024-02-26T07:41:52;5.20;;;2.72;;
72388;SDS011;60566;48.062;9.930;2024-02-26T07:44:19;4.78;;;2.45;;
72388;SDS011;60566;48.062;9.930;2024-02-26T07:46:44;5.40;;;2.50;;
72388;SDS011;60566;48.062;9.930;2024-02-26T07:49:10;4.80;;;2.45;;
72388;SDS011;60566;48.062;9.930;2024-02-26T07:51:35;6.15;;;2.88;;
72388;SDS011;60566;48.062;9.930;2024-02-26T07:54:00;6.50;;;3.10;;
72388;SDS011;60566;48.062;9.930;2024-02-26T07:56:26;4.43;;;2.72;;
72388;SDS011;60566;48.062;9.930;2024-02-26T07:58:52;6.40;;;2.40;;
72388;SDS011;60566;48.062;9.930;2024-02-26T08:01:19;5.65;;;2.95;;
72388;SDS011;60566;48.062;9.930;2024-02-26T08:03:44;5.07;;;2.65;;
72388;SDS011;60566;48.062;9.930;2024-02-26T08:06:09;6.25;;;2.92;;
72388;SDS011;60566;48.062;9.930;2024-02-26T08:08:35;4.45;;;2.30;;
72388;SDS011;60566;48.062;9.930;2024-02-26T08:11:00;4.88;;;2.28;;
72388;SDS011;60566;48.062;9.930;2024-02-26T08:13:25;5.25;;;2.65;;
72388;SDS011;60566;48.062;9.930;2024-02-26T08:15:51;4.45;;;2.72;;
72388;SDS011;60566;48.062;9.930;2024-02-26T08:18:18;6.00;;;3.40;;
72388;SDS011;60566;48.062;9.930;2024-02-26T08:20:43;5.25;;;3.28;;
72388;SDS011;60566;48.062;9.930;2024-02-26T08:23:09;6.40;;;2.92;;
72388;SDS011;60566;48.062;9.930;2024-02-26T08:25:34;5.72;;;2.90;;
72388;SDS011;60566;48.062;9.930;2024-02-26T08:27:59;4.65;;;2.78;;
72388;SDS011;60566;48.062;9.930;2024-02-26T08:30:25;5.82;;;3.65;;
72388;SDS011;60566;48.062;9.930;2024-02-26T08:32:50;6.25;;;3.17;;
72388;SDS011;60566;48.062;9.930;2024-02-26T08:35:17;6.25;;;3.17;;
72388;SDS011;60566;48.062;9.930;2024-02-26T08:37:44;6.47;;;2.97;;
72388;SDS011;60566;48.062;9.930;2024-02-26T08:40:09;6.85;;;3.53;;
72388;SDS011;60566;48.062;9.930;2024-02-26T08:42:35;5.45;;;3.67;;
72388;SDS011;60566;48.062;9.930;2024-02-26T08:45:01;6.90;;;3.30;;
72388;SDS011;60566;48.062;9.930;2024-02-26T08:47:27;5.55;;;3.35;;
72388;SDS011;60566;48.062;9.930;2024-02-26T08:49:52;5.68;;;3.83;;
72388;SDS011;60566;48.062;9.930;2024-02-26T08:52:19;5.18;;;3.33;;
72388;SDS011;60566;48.062;9.930;2024-02-26T08:54:44;6.60;;;3.25;;
72388;SDS011;60566;48.062;9.930;2024-02-26T08:57:10;5.65;;;3.33;;
72388;SDS011;60566;48.062;9.930;2024-02-26T08:59:35;5.68;;;3.65;;
72388;SDS011;60566;48.062;9.930;2024-02-26T09:02:01;6.60;;;3.38;;
72388;SDS011;60566;48.062;9.930;2024-02-26T09:04:26;4.97;;;2.80;;
72388;SDS011;60566;48.062;9.930;2024-02-26T09:06:51;5.32;;;3.05;;
72388;SDS011;60566;48.062;9.930;2024-02-26T09:09:18;7.50;;;3.42;;
72388;SDS011;60566;48.062;9.930;2024-02-26T09:11:44;7.85;;;3.80;;
72388;SDS011;60566;48.062;9.930;2024-02-26T09:14:09;5.70;;;3.53;;
72388;SDS011;60566;48.062;9.930;2024-02-26T09:16:34;7.32;;;4.03;;
72388;SDS011;60566;48.062;9.930;2024-02-26T09:19:00;6.90;;;3.60;;
72388;SDS011;60566;48.062;9.930;2024-02-26T09:21:25;6.38;;;3.88;;
72388;SDS011;60566;48.062;9.930;2024-02-26T09:23:50;7.85;;;4.03;;
72388;SDS011;60566;48.062;9.930;2024-02-26T09:26:17;7.35;;;3.75;;
72388;SDS011;60566;48.062;9.930;2024-02-26T09:28:43;7.10;;;4.38;;
72388;SDS011;60566;48.062;9.930;2024-02-26T09:31:08;6.93;;;4.40;;
72388;SDS011;60566;48.062;9.930;2024-02-26T09:33:33;7.13;;;4.07;;
72388;SDS011;60566;48.062;9.930;2024-02-26T09:35:59;7.70;;;4.53;;
72388;SDS011;60566;48.062;9.930;2024-02-26T09:38:25;8.13;;;4.57;;
72388;SDS011;60566;48.062;9.930;2024-02-26T09:40:50;8.18;;;3.92;;
72388;SDS011;60566;48.062;9.930;2024-02-26T09:43:17;8.40;;;4.30;;
72388;SDS011;60566;48.062;9.930;2024-02-26T09:45:42;7.95;;;4.35;;
72388;SDS011;60566;48.062;9.930;2024-02-26T09:48:08;9.00;;;4.40;;
72388;SDS011;60566;48.062;9.930;2024-02-26T09:50:35;7.15;;;4.72;;
72388;SDS011;60566;48.062;9.930;2024-02-26T09:53:00;8.90;;;4.43;;
72388;SDS011;60566;48.062;9.930;2024-02-26T09:55:25;10.25;;;4.78;;
72388;SDS011;60566;48.062;9.930;2024-02-26T09:57:51;8.68;;;4.88;;
72388;SDS011;60566;48.062;9.930;2024-02-26T10:00:18;9.02;;;5.43;;
72388;SDS011;60566;48.062;9.930;2024-02-26T10:02:46;8.27;;;4.50;;
72388;SDS011;60566;48.062;9.930;2024-02-26T10:05:11;8.85;;;4.18;;
72388;SDS011;60566;48.062;9.930;2024-02-26T10:07:37;9.88;;;4.50;;
72388;SDS011;60566;48.062;9.930;2024-02-26T10:10:03;8.35;;;4.10;;
72388;SDS011;60566;48.062;9.930;2024-02-26T10:12:29;15.68;;;5.45;;
72388;SDS011;60566;48.062;9.930;2024-02-26T10:14:54;6.93;;;4.38;;
72388;SDS011;60566;48.062;9.930;2024-02-26T10:17:21;8.63;;;4.63;;
72388;SDS011;60566;48.062;9.930;2024-02-26T10:19:46;10.30;;;5.35;;
72388;SDS011;60566;48.062;9.930;2024-02-26T10:22:12;10.32;;;5.68;;
72388;SDS011;60566;48.062;9.930;2024-02-26T10:24:37;9.73;;;5.57;;
72388;SDS011;60566;48.062;9.930;2024-02-26T10:27:03;12.07;;;5.72;;
72388;SDS011;60566;48.062;9.930;2024-02-26T10:29:28;8.68;;;4.68;;
72388;SDS011;60566;48.062;9.930;2024-02-26T10:31:54;10.23;;;5.65;;
72388;SDS011;60566;48.062;9.930;2024-02-26T10:34:20;9.57;;;4.82;;
72388;SDS011;60566;48.062;9.930;2024-02-26T10:36:46;10.75;;;5.13;;
72388;SDS011;60566;48.062;9.930;2024-02-26T10:39:12;9.32;;;5.70;;
72388;SDS011;60566;48.062;9.930;2024-02-26T10:41:38;8.90;;;4.93;;
72388;SDS011;60566;48.062;9.930;2024-02-26T10:44:03;8.07;;;4.78;;
72388;SDS011;60566;48.062;9.930;2024-02-26T10:46:29;9.95;;;5.55;;
72388;SDS011;60566;48.062;9.930;2024-02-26T10:48:54;8.32;;;4.85;;
72388;SDS011;60566;48.062;9.930;2024-02-26T10:51:26;7.55;;;4.60;;
72388;SDS011;60566;48.062;9.930;2024-02-26T10:53:54;9.27;;;4.60;;
72388;SDS011;60566;48.062;9.930;2024-02-26T10:56:20;7.47;;;4.70;;
72388;SDS011;60566;48.062;9.930;2024-02-26T10:58:47;11.40;;;4.90;;
72388;SDS011;60566;48.062;9.930;2024-02-26T11:01:12;7.60;;;4.22;;
72388;SDS011;60566;48.062;9.930;2024-02-26T11:03:38;8.98;;;4.72;;
72388;SDS011;60566;48.062;9.930;2024-02-26T11:06:04;8.85;;;4.15;;
72388;SDS011;60566;48.062;9.930;2024-02-26T11:08:31;11.65;;;5.03;;
72388;SDS011;60566;48.062;9.930;2024-02-26T11:10:56;8.52;;;4.22;;
72388;SDS011;60566;48.062;9.930;2024-02-26T11:13:23;9.65;;;4.53;;
72388;SDS011;60566;48.062;9.930;2024-02-26T11:15:50;8.35;;;4.30;;
72388;SDS011;60566;48.062;9.930;2024-02-26T11:18:16;9.18;;;3.63;;
72388;SDS011;60566;48.062;9.930;2024-02-26T11:20:44;7.20;;;3.78;;
72388;SDS011;60566;48.062;9.930;2024-02-26T11:23:11;7.60;;;4.22;;
72388;SDS011;60566;48.062;9.930;2024-02-26T11:25:37;9.48;;;4.55;;
72388;SDS011;60566;48.062;9.930;2024-02-26T11:28:04;9.02;;;4.30;;
72388;SDS011;60566;48.062;9.930;2024-02-26T11:30:31;7.38;;;3.47;;
72388;SDS011;60566;48.062;9.930;2024-02-26T11:32:59;7.25;;;3.35;;
72388;SDS011;60566;48.062;9.930;2024-02-26T11:35:25;7.40;;;3.50;;
72388;SDS011;60566;48.062;9.930;2024-02-26T11:37:53;5.57;;;3.10;;
72388;SDS011;60566;48.062;9.930;2024-02-26T11:40:19;5.43;;;2.60;;
72388;SDS011;60566;48.062;9.930;2024-02-26T11:42:45;5.10;;;2.10;;
72388;SDS011;60566;48.062;9.930;2024-02-26T11:47:56;5.15;;;2.00;;
72388;SDS011;60566;48.062;9.930;2024-02-26T11:50:33;4.28;;;2.33;;
72388;SDS011;60566;48.062;9.930;2024-02-26T11:58:12;5.07;;;2.70;;
72388;SDS011;60566;48.062;9.930;2024-02-26T12:00:41;14.80;;;3.00;;
72388;SDS011;60566;48.062;9.930;2024-02-26T12:03:07;5.32;;;2.33;;
72388;SDS011;60566;48.062;9.930;2024-02-26T12:05:32;4.70;;;2.35;;
72388;SDS011;60566;48.062;9.930;2024-02-26T12:07:59;5.10;;;2.22;;
72388;SDS011;60566;48.062;9.930;2024-02-26T12:10:26;4.72;;;2.40;;
72388;SDS011;60566;48.062;9.930;2024-02-26T12:12:53;4.82;;;2.10;;
72388;SDS011;60566;48.062;9.930;2024-02-26T12:15:31;6.30;;;2.85;;
72388;SDS011;60566;48.062;9.930;2024-02-26T12:17:57;5.35;;;2.53;;
72388;SDS011;60566;48.062;9.930;2024-02-26T12:20:22;7.90;;;2.63;;
72388;SDS011;60566;48.062;9.930;2024-02-26T12:22:49;5.38;;;2.58;;
72388;SDS011;60566;48.062;9.930;2024-02-26T12:25:15;5.93;;;2.72;;
72388;SDS011;60566;48.062;9.930;2024-02-26T12:27:41;4.30;;;2.58;;
72388;SDS011;60566;48.062;9.930;2024-02-26T12:30:06;7.53;;;2.70;;
72388;SDS011;60566;48.062;9.930;2024-02-26T12:32:34;5.20;;;3.10;;
72388;SDS011;60566;48.062;9.930;2024-02-26T12:34:59;5.90;;;2.78;;
72388;SDS011;60566;48.062;9.930;2024-02-26T12:37:25;5.95;;;2.80;;
72388;SDS011;60566;48.062;9.930;2024-02-26T12:39:51;6.40;;;2.50;;
72388;SDS011;60566;48.062;9.930;2024-02-26T12:42:16;5.28;;;2.63;;
72388;SDS011;60566;48.062;9.930;2024-02-26T12:44:41;4.60;;;2.53;;
72388;SDS011;60566;48.062;9.930;2024-02-26T12:47:07;5.25;;;2.40;;
72388;SDS011;60566;48.062;9.930;2024-02-26T12:49:33;5.57;;;2.70;;
72388;SDS011;60566;48.062;9.930;2024-02-26T12:51:59;5.63;;;2.88;;
72388;SDS011;60566;48.062;9.930;2024-02-26T12:54:24;5.97;;;2.75;;
72388;SDS011;60566;48.062;9.930;2024-02-26T12:56:50;5.47;;;2.60;;
72388;SDS011;60566;48.062;9.930;2024-02-26T12:59:15;6.65;;;2.78;;
72388;SDS011;60566;48.062;9.930;2024-02-26T13:01:40;5.25;;;2.30;;
72388;SDS011;60566;48.062;9.930;2024-02-26T13:04:06;5.25;;;2.42;;
72388;SDS011;60566;48.062;9.930;2024-02-26T13:06:33;6.10;;;2.47;;
72388;SDS011;60566;48.062;9.930;2024-02-26T13:08:59;5.32;;;2.25;;
72388;SDS011;60566;48.062;9.930;2024-02-26T13:11:24;3.85;;;2.22;;
72388;SDS011;60566;48.062;9.930;2024-02-26T13:13:49;8.00;;;4.25;;
72388;SDS011;60566;48.062;9.930;2024-02-26T13:16:15;12.95;;;5.68;;
72388;SDS011;60566;48.062;9.930;2024-02-26T13:18:40;16.40;;;8.02;;
72388;SDS011;60566;48.062;9.930;2024-02-26T13:21:09;17.75;;;8.45;;
72388;SDS011;60566;48.062;9.930;2024-02-26T13:23:37;5.47;;;2.85;;
72388;SDS011;60566;48.062;9.930;2024-02-26T13:26:03;5.38;;;2.95;;
72388;SDS011;60566;48.062;9.930;2024-02-26T13:28:28;5.20;;;2.78;;
72388;SDS011;60566;48.062;9.930;2024-02-26T13:30:54;6.63;;;3.05;;
72388;SDS011;60566;48.062;9.930;2024-02-26T13:33:20;6.22;;;3.05;;
72388;SDS011;60566;48.062;9.930;2024-02-26T13:35:45;8.63;;;3.15;;
72388;SDS011;60566;48.062;9.930;2024-02-26T13:38:11;6.18;;;2.90;;
72388;SDS011;60566;48.062;9.930;2024-02-26T13:40:38;5.10;;;2.95;;
72388;SDS011;60566;48.062;9.930;2024-02-26T13:43:03;5.03;;;2.90;;
72388;SDS011;60566;48.062;9.930;2024-02-26T13:45:29;5.15;;;3.15;;
72388;SDS011;60566;48.062;9.930;2024-02-26T13:47:55;5.13;;;2.72;;
72388;SDS011;60566;48.062;9.930;2024-02-26T13:50:26;7.95;;;3.35;;
72388;SDS011;60566;48.062;9.930;2024-02-26T13:52:51;5.53;;;2.88;;
72388;SDS011;60566;48.062;9.930;2024-02-26T13:55:17;6.40;;;2.78;;
72388;SDS011;60566;48.062;9.930;2024-02-26T13:57:44;8.80;;;3.33;;
72388;SDS011;60566;48.062;9.930;2024-02-26T14:00:09;5.32;;;2.72;;
72388;SDS011;60566;48.062;9.930;2024-02-26T14:02:35;5.93;;;3.70;;
72388;SDS011;60566;48.062;9.930;2024-02-26T14:05:01;6.15;;;3.20;;
72388;SDS011;60566;48.062;9.930;2024-02-26T14:07:26;11.98;;;3.35;;
72388;SDS011;60566;48.062;9.930;2024-02-26T14:09:51;6.18;;;2.70;;
72388;SDS011;60566;48.062;9.930;2024-02-26T14:12:17;5.75;;;3.00;;
72388;SDS011;60566;48.062;9.930;2024-02-26T14:14:44;6.30;;;3.20;;
72388;SDS011;60566;48.062;9.930;2024-02-26T14:17:09;5.25;;;2.83;;
72388;SDS011;60566;48.062;9.930;2024-02-26T14:19:34;5.95;;;2.97;;
72388;SDS011;60566;48.062;9.930;2024-02-26T14:22:00;7.80;;;3.65;;
72388;SDS011;60566;48.062;9.930;2024-02-26T14:24:25;6.00;;;3.30;;
72388;SDS011;60566;48.062;9.930;2024-02-26T14:26:50;6.03;;;3.25;;
72388;SDS011;60566;48.062;9.930;2024-02-26T14:29:16;7.18;;;3.30;;
72388;SDS011;60566;48.062;9.930;2024-02-26T14:31:43;5.82;;;2.95;;
72388;SDS011;60566;48.062;9.930;2024-02-26T14:34:08;10.45;;;4.13;;
72388;SDS011;60566;48.062;9.930;2024-02-26T14:36:33;6.45;;;3.00;;
72388;SDS011;60566;48.062;9.930;2024-02-26T14:38:59;5.60;;;2.90;;
72388;SDS011;60566;48.062;9.930;2024-02-26T14:41:24;5.60;;;3.00;;
72388;SDS011;60566;48.062;9.930;2024-02-26T14:43:49;5.82;;;2.83;;
72388;SDS011;60566;48.062;9.930;2024-02-26T14:46:15;7.13;;;2.78;;